createdAt,value
2018-01-27T00:00:18.976Z,0
2018-01-27T00:01:20.621Z,0
2018-01-27T00:02:22.283Z,0
2018-01-27T00:03:23.941Z,0
2018-01-27T00:04:25.599Z,0
2018-01-27T00:05:27.261Z,0
2018-01-27T00:06:28.906Z,0
2018-01-27T00:07:30.559Z,0
2018-01-27T00:08:32.215Z,0
2018-01-27T00:09:33.861Z,0
2018-01-27T00:10:35.555Z,0
2018-01-27T00:11:37.200Z,0
2018-01-27T00:12:38.859Z,0
2018-01-27T00:13:40.548Z,0
2018-01-27T00:14:42.200Z,0
2018-01-27T00:15:43.864Z,0
2018-01-27T00:16:45.517Z,0
2018-01-27T00:17:47.167Z,0
2018-01-27T00:18:48.816Z,0
2018-01-27T00:19:50.473Z,0
2018-01-27T00:20:52.125Z,0
2018-01-27T00:21:53.783Z,0
2018-01-27T00:22:55.455Z,0
2018-01-27T00:23:57.124Z,0
2018-01-27T00:24:58.769Z,0
2018-01-27T00:26:00.421Z,0
2018-01-27T00:27:02.066Z,0
2018-01-27T00:28:03.714Z,0
2018-01-27T00:29:05.368Z,0
2018-01-27T00:30:07.019Z,0
2018-01-27T00:31:08.669Z,0
2018-01-27T00:32:10.329Z,0
2018-01-27T00:33:11.974Z,0
2018-01-27T00:34:13.638Z,0
2018-01-27T00:35:15.290Z,0
2018-01-27T00:36:16.947Z,0
2018-01-27T00:37:18.614Z,0
2018-01-27T00:38:20.260Z,0
2018-01-27T00:39:21.912Z,0
2018-01-27T00:40:23.570Z,0
2018-01-27T00:41:25.213Z,0
2018-01-27T00:42:26.872Z,0
2018-01-27T00:43:28.530Z,0
2018-01-27T00:44:30.166Z,0
2018-01-27T00:45:31.812Z,0
2018-01-27T00:46:33.473Z,0
2018-01-27T00:47:35.130Z,0
2018-01-27T00:48:36.775Z,0
2018-01-27T00:49:38.422Z,0
2018-01-27T00:50:40.070Z,0
2018-01-27T00:51:41.719Z,0
2018-01-27T00:52:43.366Z,0
2018-01-27T00:53:45.013Z,0
2018-01-27T00:54:46.662Z,0
2018-01-27T00:55:48.351Z,0
2018-01-27T00:56:50.006Z,0
2018-01-27T00:57:51.691Z,0
2018-01-27T00:58:53.337Z,0
2018-01-27T00:59:55.024Z,0
2018-01-27T01:00:56.669Z,0
2018-01-27T01:01:58.343Z,0
2018-01-27T01:03:00.000Z,0
2018-01-27T01:04:01.667Z,0
2018-01-27T01:05:03.306Z,0
2018-01-27T01:06:04.952Z,0
2018-01-27T01:07:06.604Z,0
2018-01-27T01:08:08.255Z,0
2018-01-27T01:09:09.901Z,0
2018-01-27T01:10:11.578Z,0
2018-01-27T01:11:13.231Z,0
2018-01-27T01:12:14.878Z,0
2018-01-27T01:13:16.530Z,0
2018-01-27T01:14:18.178Z,0
2018-01-27T01:15:19.832Z,0
2018-01-27T01:16:21.484Z,0
2018-01-27T01:17:23.128Z,0
2018-01-27T01:18:24.784Z,0
2018-01-27T01:19:26.430Z,0
2018-01-27T01:20:28.086Z,0
2018-01-27T01:21:29.743Z,0
2018-01-27T01:22:31.387Z,0
2018-01-27T01:23:33.034Z,0
2018-01-27T01:24:34.680Z,0
2018-01-27T01:25:36.333Z,0
2018-01-27T01:26:37.974Z,0
2018-01-27T01:27:39.622Z,0
2018-01-27T01:28:41.269Z,0
2018-01-27T01:29:42.919Z,0
2018-01-27T01:30:44.566Z,0
2018-01-27T01:31:46.214Z,0
2018-01-27T01:32:47.867Z,0
2018-01-27T01:33:49.515Z,0
2018-01-27T01:34:51.171Z,0
2018-01-27T01:35:52.818Z,0
2018-01-27T01:36:54.467Z,0
2018-01-27T01:37:56.115Z,0
2018-01-27T01:38:57.771Z,0
2018-01-27T01:39:59.430Z,0
2018-01-27T01:41:01.101Z,0
2018-01-27T01:42:02.754Z,0
2018-01-27T01:43:04.408Z,0
2018-01-27T01:44:06.056Z,0
2018-01-27T01:45:07.696Z,0
2018-01-27T01:46:09.342Z,0
2018-01-27T01:47:10.992Z,0
2018-01-27T01:48:12.643Z,0
2018-01-27T01:49:14.288Z,0
2018-01-27T01:50:15.930Z,0
2018-01-27T01:51:17.581Z,0
2018-01-27T01:52:19.232Z,0
2018-01-27T01:53:20.887Z,0
2018-01-27T01:54:22.537Z,0
2018-01-27T01:55:24.181Z,0
2018-01-27T01:56:25.834Z,0
2018-01-27T01:57:27.473Z,0
2018-01-27T01:58:29.122Z,0
2018-01-27T01:59:30.772Z,0
2018-01-27T02:00:32.426Z,0
2018-01-27T02:01:34.202Z,0
2018-01-27T02:02:35.848Z,0
2018-01-27T02:03:37.501Z,0
2018-01-27T02:04:39.156Z,0
2018-01-27T02:05:40.801Z,0
2018-01-27T02:06:42.471Z,0
2018-01-27T02:07:44.118Z,0
2018-01-27T02:08:45.774Z,0
2018-01-27T02:09:47.424Z,0
2018-01-27T02:10:49.081Z,0
2018-01-27T02:11:50.734Z,0
2018-01-27T02:12:52.386Z,0
2018-01-27T02:13:54.043Z,0
2018-01-27T02:14:55.693Z,0
2018-01-27T02:15:57.343Z,0
2018-01-27T02:16:58.982Z,0
2018-01-27T02:18:00.636Z,0
2018-01-27T02:19:02.297Z,0
2018-01-27T02:20:03.952Z,0
2018-01-27T02:21:05.603Z,0
2018-01-27T02:22:07.248Z,0
2018-01-27T02:23:08.899Z,0
2018-01-27T02:24:10.558Z,0
2018-01-27T02:25:12.207Z,0
2018-01-27T02:26:13.857Z,0
2018-01-27T02:27:15.500Z,0
2018-01-27T02:28:17.150Z,0
2018-01-27T02:29:18.798Z,0
2018-01-27T02:30:20.449Z,0
2018-01-27T02:31:22.103Z,0
2018-01-27T02:32:23.790Z,0
2018-01-27T02:33:25.438Z,0
2018-01-27T02:34:27.082Z,0
2018-01-27T02:35:28.738Z,0
2018-01-27T02:36:30.394Z,0
2018-01-27T02:37:32.039Z,0
2018-01-27T02:38:33.683Z,0
2018-01-27T02:39:35.337Z,0
2018-01-27T02:40:36.974Z,0
2018-01-27T02:41:38.618Z,0
2018-01-27T02:42:40.282Z,0
2018-01-27T02:43:41.925Z,0
2018-01-27T02:44:43.573Z,0
2018-01-27T02:45:45.224Z,0
2018-01-27T02:46:46.873Z,0
2018-01-27T02:47:48.528Z,0
2018-01-27T02:48:50.171Z,0
2018-01-27T02:49:51.825Z,0
2018-01-27T02:50:53.494Z,0
2018-01-27T02:51:55.176Z,0
2018-01-27T02:52:56.816Z,0
2018-01-27T02:53:58.465Z,0
2018-01-27T02:55:00.117Z,0
2018-01-27T03:01:18.144Z,0
2018-01-27T03:02:19.787Z,0
2018-01-27T03:03:21.446Z,0
2018-01-27T03:04:23.086Z,0
2018-01-27T03:05:24.732Z,0
2018-01-27T03:06:26.376Z,0
2018-01-27T03:07:28.046Z,0
2018-01-27T03:08:29.685Z,0
2018-01-27T03:09:31.325Z,0
2018-01-27T03:10:32.969Z,0
2018-01-27T03:11:34.616Z,0
2018-01-27T03:12:36.264Z,0
2018-01-27T03:13:37.915Z,0
2018-01-27T03:14:39.563Z,0
2018-01-27T03:15:41.202Z,0
2018-01-27T03:16:42.882Z,0
2018-01-27T03:17:44.510Z,0
2018-01-27T03:18:46.163Z,0
2018-01-27T03:19:47.813Z,0
2018-01-27T03:20:49.459Z,0
2018-01-27T03:21:51.114Z,0
2018-01-27T03:22:52.762Z,0
2018-01-27T03:23:54.415Z,0
2018-01-27T03:24:56.062Z,0
2018-01-27T03:25:57.714Z,0
2018-01-27T03:26:59.358Z,0
2018-01-27T03:28:01.028Z,0
2018-01-27T03:29:02.662Z,0
2018-01-27T03:30:04.314Z,0
2018-01-27T03:31:05.954Z,0
2018-01-27T03:32:07.606Z,0
2018-01-27T03:33:09.265Z,0
2018-01-27T03:34:10.906Z,0
2018-01-27T03:35:12.558Z,0
2018-01-27T03:36:14.217Z,0
2018-01-27T03:37:15.867Z,0
2018-01-27T03:38:17.516Z,0
2018-01-27T03:39:19.173Z,0
2018-01-27T03:40:20.818Z,0
2018-01-27T03:41:22.458Z,0
2018-01-27T03:42:24.113Z,0
2018-01-27T03:43:25.759Z,0
2018-01-27T03:44:27.411Z,0
2018-01-27T03:45:29.063Z,0
2018-01-27T03:46:30.716Z,0
2018-01-27T03:47:32.363Z,0
2018-01-27T03:48:34.021Z,0
2018-01-27T03:49:35.664Z,0
2018-01-27T03:50:37.311Z,0
2018-01-27T03:51:38.954Z,0
2018-01-27T03:52:40.606Z,0
2018-01-27T03:53:42.251Z,0
2018-01-27T03:54:43.895Z,0
2018-01-27T03:55:45.550Z,0
2018-01-27T03:56:47.194Z,0
2018-01-27T03:57:48.846Z,0
2018-01-27T03:58:50.490Z,0
2018-01-27T03:59:52.146Z,0
2018-01-27T04:00:53.795Z,0
2018-01-27T04:01:55.443Z,0
2018-01-27T04:02:57.090Z,0
2018-01-27T04:03:58.732Z,0
2018-01-27T04:05:00.385Z,0
2018-01-27T04:06:02.037Z,0
2018-01-27T04:07:03.704Z,0
2018-01-27T04:08:05.330Z,0
2018-01-27T04:09:06.974Z,0
2018-01-27T04:10:08.622Z,0
2018-01-27T04:11:10.276Z,0
2018-01-27T04:12:11.925Z,0
2018-01-27T04:13:13.603Z,0
2018-01-27T04:14:15.249Z,0
2018-01-27T04:15:16.895Z,0
2018-01-27T04:16:18.547Z,0
2018-01-27T04:17:20.192Z,0
2018-01-27T04:18:21.839Z,0
2018-01-27T04:19:23.488Z,0
2018-01-27T04:20:25.152Z,0
2018-01-27T04:21:26.792Z,0
2018-01-27T04:22:28.443Z,0
2018-01-27T04:23:30.088Z,0
2018-01-27T04:24:31.733Z,0
2018-01-27T04:25:33.386Z,0
2018-01-27T04:26:35.028Z,0
2018-01-27T04:27:36.676Z,0
2018-01-27T04:28:38.327Z,0
2018-01-27T04:29:39.972Z,0
2018-01-27T04:30:41.622Z,0
2018-01-27T04:31:43.273Z,0
2018-01-27T04:32:44.918Z,0
2018-01-27T04:33:46.629Z,0
2018-01-27T04:34:48.313Z,0
2018-01-27T04:35:49.961Z,0
2018-01-27T04:36:51.600Z,0
2018-01-27T04:37:53.250Z,0
2018-01-27T04:38:54.897Z,0
2018-01-27T04:39:56.550Z,0
2018-01-27T04:40:58.200Z,0
2018-01-27T04:41:59.848Z,0
2018-01-27T04:43:01.499Z,0
2018-01-27T04:44:03.151Z,0
2018-01-27T04:45:04.803Z,0
2018-01-27T04:46:06.444Z,0
2018-01-27T04:47:08.098Z,0
2018-01-27T04:48:09.748Z,0
2018-01-27T04:49:11.398Z,0
2018-01-27T04:50:13.046Z,0
2018-01-27T04:51:14.691Z,0
2018-01-27T04:52:16.345Z,0
2018-01-27T04:53:17.994Z,0
2018-01-27T04:54:19.644Z,0
2018-01-27T04:55:21.297Z,0
2018-01-27T04:56:22.952Z,0
2018-01-27T04:57:24.588Z,0
2018-01-27T04:58:26.238Z,0
2018-01-27T04:59:27.878Z,0
2018-01-27T05:00:29.537Z,0
2018-01-27T05:01:31.238Z,0
2018-01-27T05:02:32.937Z,0
2018-01-27T05:03:34.582Z,0
2018-01-27T05:04:36.233Z,0
2018-01-27T05:05:37.880Z,0
2018-01-27T05:06:39.551Z,0
2018-01-27T05:07:41.201Z,0
2018-01-27T05:08:42.842Z,0
2018-01-27T05:09:44.494Z,0
2018-01-27T05:10:46.154Z,0
2018-01-27T05:11:47.798Z,0
2018-01-27T05:12:49.448Z,0
2018-01-27T05:13:51.086Z,0
2018-01-27T05:14:52.750Z,0
2018-01-27T05:15:54.390Z,0
2018-01-27T05:16:56.041Z,0
2018-01-27T05:17:57.691Z,0
2018-01-27T05:18:59.350Z,0
2018-01-27T05:20:01.001Z,0
2018-01-27T05:21:02.653Z,0
2018-01-27T05:22:04.297Z,0
2018-01-27T05:23:05.954Z,0
2018-01-27T05:24:07.631Z,0
2018-01-27T05:25:09.285Z,0
2018-01-27T05:26:10.939Z,0
2018-01-27T05:27:12.584Z,0
2018-01-27T05:28:14.238Z,0
2018-01-27T05:29:15.884Z,0
2018-01-27T05:30:18.265Z,0
2018-01-27T05:31:19.909Z,0
2018-01-27T05:32:21.555Z,0
2018-01-27T05:33:23.210Z,0
2018-01-27T05:34:24.853Z,0
2018-01-27T05:35:26.503Z,0
2018-01-27T05:36:28.161Z,0
2018-01-27T05:37:29.803Z,0
2018-01-27T05:38:31.450Z,0
2018-01-27T05:39:33.105Z,0
2018-01-27T05:40:34.748Z,0
2018-01-27T05:41:36.409Z,0
2018-01-27T05:42:38.090Z,0
2018-01-27T05:43:39.759Z,0
2018-01-27T05:44:41.421Z,0
2018-01-27T05:45:43.062Z,0
2018-01-27T05:46:44.710Z,0
2018-01-27T05:47:46.362Z,0
2018-01-27T05:48:48.009Z,0
2018-01-27T05:49:49.658Z,0
2018-01-27T05:50:51.312Z,0
2018-01-27T05:51:52.962Z,0
2018-01-27T05:52:54.615Z,0
2018-01-27T05:53:56.263Z,0
2018-01-27T05:54:57.917Z,0
2018-01-27T05:55:59.561Z,0
2018-01-27T05:57:04.774Z,0
2018-01-27T05:58:06.385Z,0
2018-01-27T05:59:08.042Z,0
2018-01-27T06:00:09.706Z,0
2018-01-27T06:01:11.352Z,0
2018-01-27T06:02:13.025Z,0
2018-01-27T06:03:14.678Z,0
2018-01-27T06:04:16.355Z,0
2018-01-27T06:05:18.004Z,0
2018-01-27T06:06:19.645Z,0
2018-01-27T06:07:21.301Z,0
2018-01-27T06:08:22.946Z,0
2018-01-27T06:09:24.604Z,0
2018-01-27T06:10:26.245Z,0
2018-01-27T06:11:27.890Z,0
2018-01-27T06:12:29.542Z,0
2018-01-27T06:13:31.247Z,0
2018-01-27T06:14:32.893Z,0
2018-01-27T06:15:34.546Z,0
2018-01-27T06:16:36.196Z,0
2018-01-27T06:17:37.841Z,0
2018-01-27T06:18:39.500Z,0
2018-01-27T06:19:41.154Z,0
2018-01-27T06:20:42.801Z,0
2018-01-27T06:21:44.446Z,0
2018-01-27T06:22:46.096Z,0
2018-01-27T06:23:47.739Z,0
2018-01-27T06:24:49.394Z,0
2018-01-27T06:25:51.046Z,0
2018-01-27T06:26:52.688Z,0
2018-01-27T06:27:54.330Z,0
2018-01-27T06:28:55.993Z,0
2018-01-27T06:29:57.646Z,0
2018-01-27T06:30:59.296Z,0
2018-01-27T06:32:00.941Z,0
2018-01-27T06:33:02.592Z,0
2018-01-27T06:34:04.244Z,0
2018-01-27T06:35:05.892Z,0
2018-01-27T06:36:07.537Z,0
2018-01-27T06:37:09.191Z,0
2018-01-27T06:38:10.835Z,4
2018-01-27T06:39:12.497Z,4
2018-01-27T06:40:14.192Z,4
2018-01-27T06:41:15.847Z,0
2018-01-27T06:42:17.492Z,4
2018-01-27T06:43:19.148Z,4
2018-01-27T06:44:20.795Z,4
2018-01-27T06:45:22.444Z,8
2018-01-27T06:46:24.089Z,4
2018-01-27T06:47:25.730Z,8
2018-01-27T06:48:27.452Z,8
2018-01-27T06:49:29.099Z,8
2018-01-27T06:50:30.754Z,12
2018-01-27T06:51:32.400Z,12
2018-01-27T06:52:34.052Z,16
2018-01-27T06:53:35.712Z,20
2018-01-27T06:54:37.370Z,20
2018-01-27T07:00:56.020Z,40
2018-01-27T07:01:57.667Z,48
2018-01-27T07:03:49.487Z,60
2018-01-27T07:04:51.139Z,60
2018-01-27T07:05:52.788Z,68
2018-01-27T07:06:54.437Z,76
2018-01-27T07:07:56.074Z,84
2018-01-27T07:08:57.723Z,92
2018-01-27T07:09:59.380Z,100
2018-01-27T07:11:01.032Z,120
2018-01-27T07:12:02.674Z,144
2018-01-27T07:13:04.327Z,160
2018-01-27T07:14:05.978Z,168
2018-01-27T07:15:07.678Z,164
2018-01-27T07:16:09.331Z,176
2018-01-27T07:17:10.989Z,192
2018-01-27T07:18:12.632Z,212
2018-01-27T07:19:14.280Z,240
2018-01-27T07:20:15.931Z,272
2018-01-27T07:21:17.581Z,292
2018-01-27T07:22:19.240Z,328
2018-01-27T07:23:20.891Z,372
2018-01-27T07:24:22.550Z,412
2018-01-27T07:25:24.222Z,444
2018-01-27T07:26:25.854Z,464
2018-01-27T07:27:27.504Z,496
2018-01-27T07:28:29.151Z,548
2018-01-27T07:29:30.806Z,588
2018-01-27T07:30:32.464Z,620
2018-01-27T07:31:34.111Z,660
2018-01-27T07:32:35.768Z,704
2018-01-27T07:33:37.419Z,764
2018-01-27T07:34:39.071Z,844
2018-01-27T07:35:40.716Z,984
2018-01-27T07:36:42.369Z,900
2018-01-27T07:37:44.028Z,880
2018-01-27T07:38:45.682Z,908
2018-01-27T07:39:47.338Z,916
2018-01-27T07:40:48.983Z,984
2018-01-27T07:41:50.631Z,976
2018-01-27T07:42:52.283Z,932
2018-01-27T07:43:53.933Z,944
2018-01-27T07:44:55.596Z,968
2018-01-27T07:45:57.261Z,924
2018-01-27T07:46:58.903Z,956
2018-01-27T07:48:00.550Z,1016
2018-01-27T07:49:02.200Z,1084
2018-01-27T07:50:03.846Z,1172
2018-01-27T07:51:05.503Z,1284
2018-01-27T07:52:07.151Z,1368
2018-01-27T07:53:08.813Z,1364
2018-01-27T07:54:10.471Z,1196
2018-01-27T07:55:12.124Z,1148
2018-01-27T07:56:13.815Z,1304
2018-01-27T07:57:15.467Z,1340
2018-01-27T07:58:17.160Z,1368
2018-01-27T07:59:18.820Z,1448
2018-01-27T08:00:20.481Z,1440
2018-01-27T08:01:22.135Z,1412
2018-01-27T08:02:23.789Z,1408
2018-01-27T08:03:25.443Z,1448
2018-01-27T08:04:27.116Z,1560
2018-01-27T08:05:28.766Z,1612
2018-01-27T08:06:30.426Z,1544
2018-01-27T08:07:32.075Z,1544
2018-01-27T08:08:33.744Z,1716
2018-01-27T08:09:35.405Z,1880
2018-01-27T08:10:37.055Z,1924
2018-01-27T08:11:38.707Z,2052
2018-01-27T08:12:40.411Z,2116
2018-01-27T08:13:42.005Z,2132
2018-01-27T08:14:43.663Z,2088
2018-01-27T08:15:45.314Z,2052
2018-01-27T08:16:46.963Z,2148
2018-01-27T08:17:48.606Z,2312
2018-01-27T08:18:50.262Z,2444
2018-01-27T08:19:51.915Z,2452
2018-01-27T08:20:53.575Z,2440
2018-01-27T08:21:55.224Z,2572
2018-01-27T08:22:56.889Z,2740
2018-01-27T08:23:58.558Z,2688
2018-01-27T08:25:00.339Z,2520
2018-01-27T08:26:01.946Z,2372
2018-01-27T08:27:03.611Z,2376
2018-01-27T08:28:05.264Z,2296
2018-01-27T08:29:06.923Z,2212
2018-01-27T08:30:08.589Z,2300
2018-01-27T08:31:10.237Z,2364
2018-01-27T08:32:11.883Z,2220
2018-01-27T08:33:13.538Z,2176
2018-01-27T08:34:15.186Z,2284
2018-01-27T08:35:16.846Z,2348
2018-01-27T08:36:18.493Z,2288
2018-01-27T08:37:20.158Z,2188
2018-01-27T08:38:21.813Z,2088
2018-01-27T08:39:23.471Z,1948
2018-01-27T08:40:25.127Z,1868
2018-01-27T08:41:26.773Z,1960
2018-01-27T08:42:29.130Z,2096
2018-01-27T08:43:30.734Z,2220
2018-01-27T08:44:32.386Z,2336
2018-01-27T08:45:34.126Z,2592
2018-01-27T08:46:35.778Z,2700
2018-01-27T08:47:37.431Z,2568
2018-01-27T08:48:39.085Z,2476
2018-01-27T08:49:40.735Z,2640
2018-01-27T08:50:42.405Z,2852
2018-01-27T08:51:44.044Z,2908
2018-01-27T08:52:45.698Z,2892
2018-01-27T08:53:47.346Z,2936
2018-01-27T08:54:49.009Z,2992
2018-01-27T08:55:50.648Z,3084
2018-01-27T08:56:52.310Z,3264
2018-01-27T08:57:53.969Z,3444
2018-01-27T08:58:55.615Z,3444
2018-01-27T08:59:57.281Z,3344
2018-01-27T09:00:58.925Z,3368
2018-01-27T09:02:00.626Z,3392
2018-01-27T09:03:02.280Z,3388
2018-01-27T09:04:03.940Z,3628
2018-01-27T09:05:05.599Z,3992
2018-01-27T09:06:07.257Z,4208
2018-01-27T09:07:08.907Z,4416
2018-01-27T09:08:10.571Z,4604
2018-01-27T09:09:12.244Z,4676
2018-01-27T09:10:13.907Z,4840
2018-01-27T09:11:15.556Z,5028
2018-01-27T09:12:17.229Z,5064
2018-01-27T09:13:18.882Z,5136
2018-01-27T09:14:20.539Z,5280
2018-01-27T09:15:22.241Z,5376
2018-01-27T09:16:23.897Z,5432
2018-01-27T09:17:25.553Z,5416
2018-01-27T09:18:27.206Z,5376
2018-01-27T09:19:28.859Z,5212
2018-01-27T09:20:30.602Z,4856
2018-01-27T09:21:32.247Z,4820
2018-01-27T09:22:33.903Z,5080
2018-01-27T09:23:35.554Z,5064
2018-01-27T09:24:37.208Z,4964
2018-01-27T09:25:38.871Z,5072
2018-01-27T09:26:42.960Z,5136
2018-01-27T09:27:52.173Z,4920
2018-01-27T09:28:58.997Z,4732
2018-01-27T09:30:06.362Z,4768
2018-01-27T09:31:14.593Z,4808
2018-01-27T09:32:22.202Z,4704
2018-01-27T09:33:29.533Z,4852
2018-01-27T09:34:31.758Z,4928
2018-01-27T09:35:33.412Z,4868
2018-01-27T09:36:35.076Z,4736
2018-01-27T09:37:36.726Z,4536
2018-01-27T09:38:38.389Z,4300
2018-01-27T09:39:40.045Z,4208
2018-01-27T09:40:41.705Z,4124
2018-01-27T09:41:43.359Z,4164
2018-01-27T09:42:45.019Z,4228
2018-01-27T09:43:46.668Z,4232
2018-01-27T09:44:48.318Z,4316
2018-01-27T09:45:49.978Z,4020
2018-01-27T09:46:51.638Z,3792
2018-01-27T09:47:53.291Z,3856
2018-01-27T09:48:54.950Z,4012
2018-01-27T09:49:56.620Z,4176
2018-01-27T09:50:58.278Z,4460
2018-01-27T09:51:59.933Z,5084
2018-01-27T09:53:01.580Z,5892
2018-01-27T09:54:03.239Z,5968
2018-01-27T09:55:04.898Z,6064
2018-01-27T09:56:06.555Z,6520
2018-01-27T09:57:08.224Z,7140
2018-01-27T09:58:09.881Z,7264
2018-01-27T09:59:12.984Z,7332
2018-01-27T10:00:20.275Z,7928
2018-01-27T10:01:21.694Z,9108
2018-01-27T10:02:23.355Z,10332
2018-01-27T10:03:25.015Z,11644
2018-01-27T10:04:26.718Z,12776
2018-01-27T10:05:28.379Z,14760
2018-01-27T10:06:30.034Z,23936
2018-01-27T10:07:31.695Z,23552
2018-01-27T10:08:33.350Z,22560
2018-01-27T10:09:35.008Z,22016
2018-01-27T10:10:36.668Z,22848
2018-01-27T10:11:39.456Z,22016
2018-01-27T10:12:41.042Z,23136
2018-01-27T10:13:42.722Z,19744
2018-01-27T10:14:44.373Z,11268
2018-01-27T10:15:46.062Z,8588
2018-01-27T10:16:47.760Z,10132
2018-01-27T10:17:49.430Z,17032
2018-01-27T10:18:51.105Z,20288
2018-01-27T10:19:52.789Z,17824
2018-01-27T10:20:54.444Z,19744
2018-01-27T10:21:56.118Z,16996
2018-01-27T10:22:57.809Z,15020
2018-01-27T10:23:59.471Z,15040
2018-01-27T10:25:01.181Z,18784
2018-01-27T10:26:02.831Z,19584
2018-01-27T10:27:05.357Z,16284
2018-01-27T10:28:07.020Z,16060
2018-01-27T10:29:08.680Z,17376
2018-01-27T10:30:10.366Z,12412
2018-01-27T10:31:12.030Z,11808
2018-01-27T10:32:13.708Z,15264
2018-01-27T10:33:15.382Z,14032
2018-01-27T10:34:17.149Z,11612
2018-01-27T10:35:18.823Z,14292
2018-01-27T10:36:21.299Z,18176
2018-01-27T10:37:22.917Z,13980
2018-01-27T10:38:24.587Z,15916
2018-01-27T10:39:26.251Z,18528
2018-01-27T10:40:28.089Z,18944
2018-01-27T10:41:29.916Z,20096
2018-01-27T10:42:31.571Z,22784
2018-01-27T10:43:33.230Z,24768
2018-01-27T10:44:34.905Z,24640
2018-01-27T10:45:36.556Z,22880
2018-01-27T10:46:38.271Z,18240
2018-01-27T10:47:39.932Z,18208
2018-01-27T10:48:41.649Z,19040
2018-01-27T10:49:43.316Z,16488
2018-01-27T10:50:44.976Z,15792
2018-01-27T10:51:46.646Z,16596
2018-01-27T10:52:48.319Z,19136
2018-01-27T10:53:49.990Z,18688
2018-01-27T10:54:51.780Z,21728
2018-01-27T10:55:53.441Z,35712
2018-01-27T11:01:46.118Z,19168
2018-01-27T11:02:47.778Z,20416
2018-01-27T11:03:49.437Z,28352
2018-01-27T11:04:51.081Z,20704
2018-01-27T11:05:52.770Z,22112
2018-01-27T11:06:54.429Z,29248
2018-01-27T11:07:56.088Z,20960
2018-01-27T11:08:57.747Z,19296
2018-01-27T11:09:59.409Z,20832
2018-01-27T11:11:01.076Z,23872
2018-01-27T11:12:02.747Z,15836
2018-01-27T11:13:04.435Z,27168
2018-01-27T11:14:06.454Z,18336
2018-01-27T11:15:08.109Z,16468
2018-01-27T11:16:09.774Z,18496
2018-01-27T11:17:11.437Z,19264
2018-01-27T11:18:13.108Z,15364
2018-01-27T11:19:14.769Z,14124
2018-01-27T11:20:16.426Z,15864
2018-01-27T11:21:18.095Z,21440
2018-01-27T11:22:20.378Z,21216
2018-01-27T11:23:22.059Z,17264
2018-01-27T11:24:23.805Z,20576
2018-01-27T11:25:25.462Z,23936
2018-01-27T11:26:27.159Z,21152
2018-01-27T11:27:28.848Z,24000
2018-01-27T11:28:30.505Z,19072
2018-01-27T11:29:32.165Z,17424
2018-01-27T11:30:33.829Z,16396
2018-01-27T11:31:35.523Z,18976
2018-01-27T11:32:37.192Z,24320
2018-01-27T11:33:38.856Z,23968
2018-01-27T11:34:40.520Z,21344
2018-01-27T11:35:42.185Z,36000
2018-01-27T11:36:43.854Z,19584
2018-01-27T11:37:45.518Z,18048
2018-01-27T11:38:47.201Z,16752
2018-01-27T11:39:48.859Z,19136
2018-01-27T11:40:50.526Z,39872
2018-01-27T11:41:52.191Z,17332
2018-01-27T11:42:53.853Z,14972
2018-01-27T11:43:55.564Z,12524
2018-01-27T11:44:57.236Z,9940
2018-01-27T11:45:58.894Z,10116
2018-01-27T11:47:00.572Z,10624
2018-01-27T11:48:02.282Z,10884
2018-01-27T11:49:03.951Z,11036
2018-01-27T11:50:05.611Z,11164
2018-01-27T11:51:07.286Z,10692
2018-01-27T11:52:08.951Z,10136
2018-01-27T11:53:10.622Z,9396
2018-01-27T11:54:12.282Z,8964
2018-01-27T11:55:13.940Z,8248
2018-01-27T11:56:15.590Z,7300
2018-01-27T11:57:17.251Z,7280
2018-01-27T11:58:18.930Z,7348
2018-01-27T11:59:20.601Z,6744
2018-01-27T12:00:22.251Z,6528
2018-01-27T12:01:23.902Z,7040
2018-01-27T12:02:25.566Z,7028
2018-01-27T12:03:27.247Z,6496
2018-01-27T12:04:28.902Z,6032
2018-01-27T12:05:30.557Z,5724
2018-01-27T12:06:32.208Z,5452
2018-01-27T12:07:33.872Z,5176
2018-01-27T12:08:35.537Z,5808
2018-01-27T12:09:37.188Z,6636
2018-01-27T12:10:38.864Z,6756
2018-01-27T12:11:40.524Z,7016
2018-01-27T12:12:42.180Z,7724
2018-01-27T12:13:43.850Z,9220
2018-01-27T12:14:45.496Z,9856
2018-01-27T12:15:47.188Z,8992
2018-01-27T12:16:48.853Z,10556
2018-01-27T12:17:50.524Z,11872
2018-01-27T12:18:52.187Z,11628
2018-01-27T12:19:53.953Z,11772
2018-01-27T12:20:55.612Z,13772
2018-01-27T12:21:57.277Z,14120
2018-01-27T12:22:59.067Z,11976
2018-01-27T12:24:00.728Z,10452
2018-01-27T12:25:02.396Z,9884
2018-01-27T12:26:04.056Z,8944
2018-01-27T12:27:05.779Z,8044
2018-01-27T12:28:07.449Z,6680
2018-01-27T12:29:09.107Z,6072
2018-01-27T12:30:10.772Z,5748
2018-01-27T12:31:12.426Z,6088
2018-01-27T12:32:14.144Z,6800
2018-01-27T12:33:15.807Z,6340
2018-01-27T12:34:17.456Z,6532
2018-01-27T12:35:19.119Z,7196
2018-01-27T12:36:20.792Z,6772
2018-01-27T12:37:22.450Z,6676
2018-01-27T12:38:24.110Z,7752
2018-01-27T12:39:25.763Z,8496
2018-01-27T12:40:27.429Z,9688
2018-01-27T12:41:29.085Z,11816
2018-01-27T12:42:30.762Z,12540
2018-01-27T12:43:32.427Z,12340
2018-01-27T12:44:34.079Z,11836
2018-01-27T12:45:35.742Z,11288
2018-01-27T12:46:37.402Z,12056
2018-01-27T12:47:39.067Z,13388
2018-01-27T12:48:40.724Z,22144
2018-01-27T12:49:42.388Z,16168
2018-01-27T12:50:44.047Z,19680
2018-01-27T12:51:45.712Z,35744
2018-01-27T12:52:47.380Z,17368
2018-01-27T12:53:49.029Z,16220
2018-01-27T12:54:50.707Z,14248
2018-01-27T12:55:52.368Z,13572
2018-01-27T12:56:54.032Z,12448
2018-01-27T12:57:55.697Z,10872
2018-01-27T12:58:57.356Z,9960
2018-01-27T12:59:59.013Z,11296
2018-01-27T13:01:00.686Z,14016
2018-01-27T13:02:02.362Z,10900
2018-01-27T13:03:04.027Z,9144
2018-01-27T13:04:05.686Z,8948
2018-01-27T13:05:07.351Z,7808
2018-01-27T13:06:08.997Z,7328
2018-01-27T13:07:10.659Z,7776
2018-01-27T13:08:12.314Z,7804
2018-01-27T13:09:13.971Z,8168
2018-01-27T13:10:15.639Z,8944
2018-01-27T13:11:17.328Z,10860
2018-01-27T13:12:18.979Z,13032
2018-01-27T13:13:20.638Z,13980
2018-01-27T13:14:22.297Z,13764
2018-01-27T13:15:23.980Z,13796
2018-01-27T13:16:25.646Z,13740
2018-01-27T13:17:27.309Z,13312
2018-01-27T13:18:28.974Z,12820
2018-01-27T13:19:30.630Z,11472
2018-01-27T13:20:32.287Z,13056
2018-01-27T13:21:33.955Z,15352
2018-01-27T13:22:35.618Z,13836
2018-01-27T13:23:37.284Z,11376
2018-01-27T13:24:40.276Z,9948
2018-01-27T13:25:41.937Z,10408
2018-01-27T13:26:43.593Z,10964
2018-01-27T13:27:45.248Z,11304
2018-01-27T13:28:46.935Z,10168
2018-01-27T13:29:57.165Z,11012
2018-01-27T13:30:58.674Z,12980
2018-01-27T13:32:00.340Z,15500
2018-01-27T13:33:02.002Z,16748
2018-01-27T13:34:03.668Z,17504
2018-01-27T13:35:05.323Z,14260
2018-01-27T13:36:07.546Z,13716
2018-01-27T13:37:09.211Z,14836
2018-01-27T13:38:10.887Z,13600
2018-01-27T13:39:12.796Z,16424
2018-01-27T13:40:14.461Z,14884
2018-01-27T13:42:25.829Z,15160
2018-01-27T13:43:27.623Z,15052
2018-01-27T13:45:19.918Z,17344
2018-01-27T15:01:22.806Z,3812
2018-01-27T15:02:24.504Z,3804
2018-01-27T15:03:26.107Z,3840
2018-01-27T15:04:27.764Z,3876
2018-01-27T15:05:29.445Z,3812
2018-01-27T15:06:31.118Z,3716
2018-01-27T15:07:32.770Z,3592
2018-01-27T15:08:34.433Z,3496
2018-01-27T15:09:36.089Z,3376
2018-01-27T15:10:37.753Z,3276
2018-01-27T15:11:39.402Z,3192
2018-01-27T15:12:41.125Z,3124
2018-01-27T15:13:42.776Z,3108
2018-01-27T15:14:44.459Z,3084
2018-01-27T15:15:46.124Z,3140
2018-01-27T15:16:47.786Z,3348
2018-01-27T15:17:49.444Z,3188
2018-01-27T15:18:51.099Z,2880
2018-01-27T15:19:52.744Z,2620
2018-01-27T15:20:54.395Z,2532
2018-01-27T15:21:56.066Z,2548
2018-01-27T15:22:57.726Z,2608
2018-01-27T15:23:59.389Z,2512
2018-01-27T15:25:01.054Z,2388
2018-01-27T15:26:02.723Z,2304
2018-01-27T15:27:04.424Z,2208
2018-01-27T15:28:06.094Z,2112
2018-01-27T15:29:09.242Z,2040
2018-01-27T15:30:10.885Z,1944
2018-01-27T15:31:12.537Z,1852
2018-01-27T15:32:14.184Z,1728
2018-01-27T15:33:15.869Z,1636
2018-01-27T15:34:17.521Z,1552
2018-01-27T15:35:19.184Z,1472
2018-01-27T15:36:20.848Z,1404
2018-01-27T15:37:22.501Z,1340
2018-01-27T15:38:24.162Z,1292
2018-01-27T15:39:25.814Z,1252
2018-01-27T15:40:27.499Z,1192
2018-01-27T15:41:29.113Z,1136
2018-01-27T15:42:30.771Z,1092
2018-01-27T15:43:32.433Z,1060
2018-01-27T15:44:34.082Z,1028
2018-01-27T15:45:35.825Z,988
2018-01-27T15:46:37.478Z,952
2018-01-27T15:47:39.125Z,920
2018-01-27T15:48:40.790Z,884
2018-01-27T15:49:42.436Z,856
2018-01-27T15:50:44.093Z,832
2018-01-27T15:51:45.753Z,804